Time;durP1;ratioP1;P1;durP2;ratioP2;P2;SDS_P1;SDS_P2;PMS_P1;PMS_P2;Temp;Humidity;BMP_temperature;BMP_pressure;BME280_temperature;BME280_humidity;BME280_pressure;Samples;Min_cycle;Max_cycle;Signal;HPM_P1;HPM_P2
2023/04/12 00:02:15;;;;;;;3.87;2.23;;;17.60;53.70;18.40;99976.00;;;;5037410;28;20206;-57
2023/04/12 00:04:40;;;;;;;3.23;2.30;;;17.60;53.80;18.40;99972.00;;;;5038958;28;20212;-58
2023/04/12 00:07:08;;;;;;;2.87;2.07;;;17.60;53.90;18.50;99972.00;;;;5038203;28;20204;-56
2023/04/12 00:09:35;;;;;;;2.93;2.20;;;17.60;54.00;18.50;99971.00;;;;5029786;28;20192;-55
2023/04/12 00:12:01;;;;;;;3.00;2.07;;;17.60;54.00;18.50;99967.00;;;;5028650;28;20184;-57
2023/04/12 00:14:27;;;;;;;2.50;2.00;;;17.60;54.10;18.50;99963.00;;;;5029438;28;20604;-57
2023/04/12 00:16:53;;;;;;;2.83;1.90;;;17.50;54.00;18.40;99942.00;;;;5029402;28;20176;-56
2023/04/12 00:19:19;;;;;;;2.90;2.23;;;17.60;54.10;18.50;99947.00;;;;5029266;28;20246;-55
2023/04/12 00:21:45;;;;;;;3.90;2.23;;;17.60;54.20;18.40;99941.00;;;;5029122;28;20698;-56
2023/04/12 00:24:11;;;;;;;2.23;2.00;;;17.50;54.20;18.40;99941.00;;;;5028834;28;20180;-55
2023/04/12 00:26:36;;;;;;;2.80;1.90;;;17.50;54.30;18.40;99932.00;;;;5028697;28;20296;-56
2023/04/12 00:29:02;;;;;;;2.40;2.00;;;17.60;54.40;18.40;99933.00;;;;5028953;28;20191;-57
2023/04/12 00:31:28;;;;;;;2.17;1.93;;;17.50;54.40;18.40;99918.00;;;;5029059;28;20186;-57
2023/04/12 00:33:54;;;;;;;3.00;2.00;;;17.50;54.40;18.40;99921.00;;;;5028995;28;20216;-56
2023/04/12 00:36:20;;;;;;;2.67;1.97;;;17.50;54.50;18.40;99902.00;;;;5028910;28;20558;-56
2023/04/12 00:38:45;;;;;;;2.50;1.83;;;17.50;54.60;18.40;99901.00;;;;5028856;28;20177;-56
2023/04/12 00:41:16;;;;;;;1.90;1.70;;;17.50;54.60;18.40;99846.00;;;;5029028;28;20177;-58
2023/04/12 00:43:42;;;;;;;3.00;2.00;;;17.50;54.70;18.40;99874.00;;;;5028694;28;20240;-56
2023/04/12 00:46:07;;;;;;;2.60;1.90;;;17.50;54.70;18.40;99876.00;;;;5027443;28;20797;-56
2023/04/12 00:48:35;;;;;;;1.70;1.60;;;17.40;54.60;18.30;99872.00;;;;5027553;28;20662;-57
2023/04/12 00:51:03;;;;;;;2.30;2.00;;;17.50;54.70;18.40;99857.00;;;;5027087;28;20185;-61
2023/04/12 00:53:29;;;;;;;2.80;2.00;;;17.40;54.60;18.30;99854.00;;;;5027261;28;20203;-56
2023/04/12 00:55:55;;;;;;;2.37;1.83;;;17.40;54.60;18.30;99844.00;;;;5028546;28;20412;-56
2023/04/12 00:58:23;;;;;;;2.70;2.00;;;17.40;54.70;18.30;99843.00;;;;5027295;28;20176;-55
2023/04/12 01:00:49;;;;;;;2.40;1.90;;;17.40;54.70;18.30;99850.00;;;;5028846;28;20176;-56
2023/04/12 01:03:26;;;;;;;1.90;1.70;;;17.40;54.80;18.30;99849.00;;;;5028602;28;20182;-56
2023/04/12 01:06:30;;;;;;;3.63;2.30;;;17.40;54.70;18.30;99833.00;;;;5027458;28;20213;-56
2023/04/12 01:09:10;;;;;;;2.37;2.00;;;17.40;54.80;18.20;99829.00;;;;5028873;28;20199;-55
2023/04/12 01:11:43;;;;;;;2.73;2.00;;;17.30;54.80;18.20;99836.00;;;;5028491;28;20262;-55
2023/04/12 01:14:18;;;;;;;1.80;1.70;;;17.40;54.90;18.20;99818.00;;;;5026781;28;20211;-54
2023/04/12 01:16:50;;;;;;;2.53;1.73;;;17.40;54.90;18.20;99810.00;;;;5027080;28;20594;-55
2023/04/12 01:19:32;;;;;;;2.50;1.80;;;17.30;55.00;18.20;99799.00;;;;5026828;28;20861;-55
2023/04/12 01:22:31;;;;;;;3.70;1.90;;;17.30;55.00;18.20;99801.00;;;;5026488;28;20174;-55
2023/04/12 01:25:34;;;;;;;2.77;1.90;;;17.30;55.00;18.20;99792.00;;;;5026407;28;20225;-56
2023/04/12 01:28:01;;;;;;;2.70;1.97;;;17.30;55.00;18.10;99770.00;;;;5026713;28;20517;-55
2023/04/12 01:30:28;;;;;;;1.90;1.70;;;17.30;55.10;18.10;99798.00;;;;5026569;28;20181;-57
2023/04/12 01:32:55;;;;;;;2.13;1.90;;;17.30;55.10;18.10;99783.00;;;;5026668;28;20283;-55
2023/04/12 01:35:23;;;;;;;2.20;1.70;;;17.30;55.10;18.10;99780.00;;;;5028094;28;20260;-56
2023/04/12 01:37:48;;;;;;;2.67;1.80;;;17.30;55.10;18.10;99780.00;;;;5035713;28;20183;-56
2023/04/12 01:40:14;;;;;;;2.30;1.80;;;17.20;55.00;18.10;99765.00;;;;5049037;28;20230;-57
2023/04/12 01:42:40;;;;;;;2.47;1.80;;;17.30;55.20;18.10;99753.00;;;;5028184;28;20175;-56
2023/04/12 01:45:06;;;;;;;2.20;1.80;;;17.20;55.10;18.10;99775.00;;;;5029653;28;20210;-56
2023/04/12 01:47:32;;;;;;;2.57;1.87;;;17.20;55.10;18.10;99761.00;;;;5022161;28;20194;-57
2023/04/12 01:50:58;;;;;;;1.73;1.57;;;17.20;55.10;18.10;99746.00;;;;5028020;28;20647;-57
2023/04/12 01:54:18;;;;;;;1.70;1.60;;;17.20;55.10;18.00;99733.00;;;;5036963;28;20206;-58
2023/04/12 01:56:57;;;;;;;3.27;1.87;;;17.20;55.20;18.00;99721.00;;;;5026219;28;20183;-55
2023/04/12 01:59:26;;;;;;;2.27;1.90;;;17.20;55.20;18.00;99717.00;;;;5026466;28;20201;-56
2023/04/12 02:01:51;;;;;;;2.07;1.70;;;17.20;55.20;18.00;99722.00;;;;5027744;28;20186;-55
2023/04/12 02:04:17;;;;;;;2.33;1.80;;;17.20;55.20;18.00;99705.00;;;;5026419;28;20191;-57
2023/04/12 02:06:43;;;;;;;2.60;1.70;;;17.10;55.10;18.00;99704.00;;;;5026323;28;20271;-55
2023/04/12 02:09:09;;;;;;;2.10;1.70;;;17.20;55.10;18.00;99691.00;;;;5010132;28;20180;-55
2023/04/12 02:11:34;;;;;;;1.93;1.60;;;17.10;55.10;17.90;99687.00;;;;5027583;28;20599;-57
2023/04/12 02:14:00;;;;;;;2.13;1.70;;;17.10;55.20;18.00;99673.00;;;;5027377;28;20286;-56
2023/04/12 02:16:28;;;;;;;2.00;1.80;;;17.10;55.20;17.90;99662.00;;;;5042722;28;20217;-55
2023/04/12 02:18:55;;;;;;;2.00;1.80;;;17.10;55.20;17.90;99657.00;;;;5027701;28;20240;-56
2023/04/12 02:21:20;;;;;;;2.50;2.00;;;17.10;55.20;17.90;99661.00;;;;5027479;28;20175;-56
2023/04/12 02:23:47;;;;;;;2.30;1.83;;;17.10;55.10;17.90;99647.00;;;;5027163;28;20181;-55
2023/04/12 02:26:12;;;;;;;1.77;1.60;;;17.10;55.20;17.90;99651.00;;;;5026793;28;20388;-56
2023/04/12 02:28:38;;;;;;;2.57;1.70;;;17.00;55.30;17.90;99653.00;;;;5027412;28;20256;-56
2023/04/12 02:31:05;;;;;;;2.00;1.80;;;17.00;55.40;17.90;99652.00;;;;5027580;28;20181;-55
2023/04/12 02:33:31;;;;;;;2.57;1.77;;;17.00;55.40;17.90;99637.00;;;;5029522;28;20202;-56
2023/04/12 02:35:57;;;;;;;1.73;1.63;;;17.00;55.40;17.90;99649.00;;;;5029520;28;20255;-55
2023/04/12 02:38:22;;;;;;;2.67;1.80;;;17.00;55.30;17.90;99633.00;;;;5031347;28;20183;-57
2023/04/12 02:40:48;;;;;;;2.27;1.80;;;17.00;55.30;17.90;99633.00;;;;5031080;28;20253;-56
2023/04/12 02:43:14;;;;;;;2.40;1.60;;;17.00;55.40;17.90;99628.00;;;;5030582;28;20603;-57
2023/04/12 02:45:40;;;;;;;2.00;1.80;;;17.00;55.30;17.80;99634.00;;;;5030785;28;20195;-55
2023/04/12 02:48:06;;;;;;;2.77;1.70;;;17.00;55.40;17.80;99631.00;;;;5013074;28;20265;-55
2023/04/12 02:50:32;;;;;;;2.23;1.77;;;16.90;55.30;17.80;99607.00;;;;5031437;28;20637;-56
2023/04/12 02:52:57;;;;;;;1.77;1.60;;;17.00;55.40;17.80;99598.00;;;;5031128;28;20183;-56
2023/04/12 02:55:24;;;;;;;1.70;1.60;;;16.90;55.30;17.80;99590.00;;;;5031194;28;20744;-58
2023/04/12 02:57:50;;;;;;;1.70;1.53;;;16.90;55.40;17.60;99567.00;;;;5031113;28;20265;-56
2023/04/12 03:00:16;;;;;;;2.10;1.50;;;16.90;55.50;17.80;99565.00;;;;5022736;28;20267;-57
2023/04/12 03:02:42;;;;;;;1.77;1.60;;;16.90;55.50;17.80;99561.00;;;;5030338;28;20709;-56
2023/04/12 03:05:08;;;;;;;2.80;1.90;;;16.90;55.50;17.70;99552.00;;;;5030474;28;20209;-56
2023/04/12 03:07:37;;;;;;;2.30;1.67;;;16.90;55.60;17.70;99545.00;;;;5030655;28;20544;-55
2023/04/12 03:10:06;;;;;;;1.63;1.50;;;16.90;55.50;17.70;99543.00;;;;5030417;28;20661;-58
2023/04/12 03:12:32;;;;;;;2.53;1.90;;;16.80;55.40;17.70;99537.00;;;;5030630;28;20685;-56
2023/04/12 03:14:58;;;;;;;1.93;1.70;;;16.90;55.50;17.70;99532.00;;;;5030064;28;20203;-55
2023/04/12 03:17:24;;;;;;;2.13;1.80;;;16.80;55.50;17.70;99522.00;;;;5025715;28;20555;-57
2023/04/12 03:19:50;;;;;;;1.57;1.43;;;16.80;55.50;17.70;99527.00;;;;5025958;28;20190;-56
2023/04/12 03:22:15;;;;;;;2.43;1.60;;;16.80;55.50;17.70;99509.00;;;;5030225;28;20242;-54
2023/04/12 03:24:43;;;;;;;1.90;1.60;;;16.80;55.40;17.70;99494.00;;;;5030106;28;20864;-55
2023/04/12 03:27:09;;;;;;;2.20;1.70;;;16.80;55.50;17.60;99502.00;;;;5029839;28;20792;-55
2023/04/12 03:29:35;;;;;;;1.97;1.70;;;16.80;55.50;17.60;99488.00;;;;5030542;28;20182;-55
2023/04/12 03:32:01;;;;;;;1.90;1.63;;;16.80;55.50;17.60;99493.00;;;;5030165;28;20760;-54
2023/04/12 03:34:30;;;;;;;2.07;1.87;;;16.80;55.50;17.60;99479.00;;;;5029208;28;20211;-56
2023/04/12 03:36:57;;;;;;;2.27;1.70;;;16.80;55.90;17.60;99464.00;;;;5034409;28;20692;-57
2023/04/12 03:39:23;;;;;;;2.37;1.90;;;16.70;55.70;17.60;99466.00;;;;5033371;28;20717;-56
2023/04/12 03:41:49;;;;;;;1.70;1.50;;;16.80;55.70;17.60;99460.00;;;;5031963;28;20190;-56
2023/04/12 03:44:14;;;;;;;2.80;1.50;;;16.70;55.60;17.60;99458.00;;;;5030373;28;20594;-56
2023/04/12 03:46:40;;;;;;;4.87;2.00;;;16.80;55.90;17.50;99441.00;;;;5006737;28;20210;-56
2023/04/12 03:49:06;;;;;;;3.17;1.80;;;16.70;55.80;17.40;99428.00;;;;5036499;28;20182;-56
2023/04/12 03:51:31;;;;;;;3.83;1.80;;;16.60;55.80;17.40;99428.00;;;;5042511;28;20195;-56
2023/04/12 03:53:57;;;;;;;3.20;1.90;;;16.60;55.70;17.30;99429.00;;;;5029788;28;20210;-56
2023/04/12 03:56:23;;;;;;;4.43;1.70;;;16.50;55.60;17.30;99421.00;;;;5031311;28;20199;-56
2023/04/12 03:58:49;;;;;;;3.90;2.10;;;16.50;55.60;17.30;99405.00;;;;5031306;28;20202;-56
2023/04/12 04:01:16;;;;;;;2.60;1.90;;;16.50;55.60;17.20;99399.00;;;;5031224;28;20639;-56
2023/04/12 04:03:43;;;;;;;2.60;2.00;;;16.50;55.60;17.20;99382.00;;;;5030397;28;20289;-56
2023/04/12 04:06:09;;;;;;;5.23;1.90;;;16.50;55.60;17.20;99381.00;;;;5030264;28;20198;-54
2023/04/12 04:08:36;;;;;;;4.67;1.97;;;16.50;55.70;17.20;99391.00;;;;5029560;28;20186;-55
2023/04/12 04:11:02;;;;;;;2.10;1.87;;;16.50;55.70;17.20;99378.00;;;;5029732;28;20191;-56
2023/04/12 04:13:27;;;;;;;3.87;1.90;;;16.50;55.60;17.20;99365.00;;;;5031959;28;20199;-55
2023/04/12 04:16:04;;;;;;;4.53;1.83;;;16.50;55.70;17.20;99373.00;;;;5039729;28;20198;-55
2023/04/12 04:18:30;;;;;;;5.03;1.97;;;16.50;55.70;17.20;99260.00;;;;5029554;28;20179;-55
2023/04/12 04:20:57;;;;;;;2.50;1.77;;;16.50;55.70;17.20;99357.00;;;;5030688;28;20529;-54
2023/04/12 04:23:23;;;;;;;5.03;2.10;;;16.50;55.70;17.20;99352.00;;;;5030530;28;20617;-56
2023/04/12 04:25:49;;;;;;;5.40;1.77;;;16.50;55.80;17.20;99345.00;;;;5030229;28;20206;-56
2023/04/12 04:28:15;;;;;;;4.67;2.00;;;16.50;55.70;17.20;99328.00;;;;5030576;28;20719;-55
2023/04/12 04:30:44;;;;;;;4.10;1.90;;;16.40;55.70;17.20;99327.00;;;;5030655;28;20221;-56
2023/04/12 04:33:11;;;;;;;3.00;1.90;;;16.40;55.70;17.20;99344.00;;;;5020508;28;20197;-56
2023/04/12 04:35:39;;;;;;;2.43;1.70;;;16.40;55.80;17.20;99331.00;;;;5028766;28;20879;-56
2023/04/12 04:38:05;;;;;;;3.50;1.70;;;16.40;55.80;17.20;99327.00;;;;5029966;28;20178;-56
2023/04/12 04:40:31;;;;;;;1.67;1.50;;;16.40;55.90;17.30;99324.00;;;;5029974;28;20178;-56
2023/04/12 04:42:58;;;;;;;3.50;1.90;;;16.40;55.90;17.20;99309.00;;;;5028443;28;20179;-57
2023/04/12 04:45:27;;;;;;;3.13;1.67;;;16.40;55.90;17.20;99321.00;;;;5029980;28;20277;-56
2023/04/12 04:47:53;;;;;;;1.97;1.60;;;16.40;55.90;17.30;99319.00;;;;5029937;28;20187;-56
2023/04/12 04:50:23;;;;;;;2.63;2.00;;;16.40;55.90;17.30;99318.00;;;;5029426;28;20179;-57
2023/04/12 04:52:52;;;;;;;4.73;1.80;;;16.40;55.90;17.30;99316.00;;;;5029873;28;20554;-56
2023/04/12 04:55:19;;;;;;;3.87;1.80;;;16.50;56.00;17.30;99314.00;;;;5028214;28;20206;-56
2023/04/12 04:57:45;;;;;;;3.07;1.70;;;16.40;56.20;17.30;99290.00;;;;5029323;28;20178;-57
2023/04/12 05:00:12;;;;;;;3.90;1.90;;;16.40;56.20;17.30;99299.00;;;;5028269;28;20182;-56
2023/04/12 05:02:41;;;;;;;2.27;1.70;;;16.40;56.10;17.30;99304.00;;;;5028603;28;20245;-57
2023/04/12 05:05:14;;;;;;;3.03;1.80;;;16.40;56.10;17.30;99304.00;;;;5029608;28;20278;-56
2023/04/12 05:07:42;;;;;;;4.03;1.83;;;16.40;56.20;17.20;99292.00;;;;5029874;28;20183;-56
2023/04/12 05:10:09;;;;;;;2.03;1.70;;;16.30;56.10;17.30;99286.00;;;;5029457;28;20237;-56
2023/04/12 05:12:35;;;;;;;2.20;1.53;;;16.40;56.30;17.20;99279.00;;;;5029407;28;20186;-57
2023/04/12 05:15:02;;;;;;;3.33;1.70;;;16.40;56.30;17.30;99293.00;;;;5028991;28;20206;-56
2023/04/12 05:17:28;;;;;;;1.80;1.70;;;16.40;56.30;17.20;99287.00;;;;5029159;28;20199;-56
2023/04/12 05:19:54;;;;;;;1.80;1.70;;;16.40;56.30;17.30;99282.00;;;;5029372;28;20217;-57
2023/04/12 05:22:20;;;;;;;2.23;1.60;;;16.40;56.30;17.20;99274.00;;;;5028898;28;20175;-56
2023/04/12 05:24:49;;;;;;;2.87;1.90;;;16.30;56.20;17.20;99261.00;;;;5029176;28;20248;-55
2023/04/12 05:27:15;;;;;;;2.50;1.43;;;16.30;56.30;17.20;99264.00;;;;5028869;28;20286;-56
2023/04/12 05:29:42;;;;;;;2.50;1.57;;;16.30;56.40;17.20;99250.00;;;;5029073;28;20254;-56
2023/04/12 05:32:07;;;;;;;1.93;1.50;;;16.30;56.40;17.20;99253.00;;;;5028348;28;20560;-56
2023/04/12 05:34:33;;;;;;;2.63;1.60;;;16.40;56.40;17.20;99246.00;;;;5033083;28;20203;-56
2023/04/12 05:36:59;;;;;;;1.70;1.60;;;16.30;56.40;17.20;99248.00;;;;5037338;28;20179;-55
2023/04/12 05:39:26;;;;;;;2.77;1.70;;;16.30;56.40;17.20;99240.00;;;;5030840;28;20171;-55
2023/04/12 05:41:52;;;;;;;2.97;1.80;;;16.30;56.40;17.20;99238.00;;;;5029643;28;20201;-55
2023/04/12 05:44:18;;;;;;;2.20;1.40;;;16.30;56.40;17.20;99238.00;;;;5028950;28;20175;-56
2023/04/12 05:46:43;;;;;;;3.60;1.80;;;16.30;56.40;17.20;99229.00;;;;5030773;28;20222;-55
2023/04/12 05:49:09;;;;;;;1.53;1.43;;;16.30;56.40;17.20;99233.00;;;;5033590;28;20187;-57
2023/04/12 05:51:35;;;;;;;1.97;1.40;;;16.30;56.40;17.20;99232.00;;;;5033464;28;20175;-55
2023/04/12 05:54:05;;;;;;;1.90;1.50;;;16.30;56.40;17.10;99232.00;;;;5029299;28;20209;-55
2023/04/12 05:56:31;;;;;;;2.20;1.70;;;16.30;56.50;17.10;99221.00;;;;5028918;28;20190;-56
2023/04/12 05:58:56;;;;;;;2.10;1.63;;;16.30;56.50;17.10;99220.00;;;;5029335;28;20182;-56
2023/04/12 06:01:29;;;;;;;1.60;1.50;;;16.30;56.50;17.00;99219.00;;;;5030368;28;20178;-56
2023/04/12 06:03:55;;;;;;;2.27;1.43;;;16.30;56.50;17.10;99221.00;;;;5027950;28;20183;-56
2023/04/12 06:06:21;;;;;;;1.47;1.30;;;16.30;56.50;17.10;99219.00;;;;5028901;28;20207;-56
2023/04/12 06:08:46;;;;;;;2.10;1.50;;;16.30;56.60;17.10;99214.00;;;;5030697;28;20182;-57
2023/04/12 06:11:12;;;;;;;1.80;1.50;;;16.20;56.60;17.10;99206.00;;;;5032306;28;20646;-55
2023/04/12 06:13:38;;;;;;;1.93;1.43;;;16.20;56.60;17.10;99206.00;;;;5032430;28;20199;-55
2023/04/12 06:16:05;;;;;;;1.40;1.30;;;16.20;56.60;17.10;99205.00;;;;5032676;28;20199;-55
2023/04/12 06:18:31;;;;;;;1.50;1.40;;;16.20;56.60;17.10;99189.00;;;;5032954;28;20537;-55
2023/04/12 06:20:57;;;;;;;2.43;1.90;;;16.20;56.60;17.10;99192.00;;;;5032353;28;20178;-57
2023/04/12 06:23:22;;;;;;;1.40;1.30;;;16.20;56.70;17.10;99193.00;;;;5031004;28;20186;-54
2023/04/12 06:25:49;;;;;;;2.10;1.40;;;16.20;56.70;17.10;99182.00;;;;5032322;28;20291;-55
2023/04/12 06:28:15;;;;;;;1.60;1.50;;;16.20;56.70;17.10;99185.00;;;;5032608;28;20179;-55
2023/04/12 06:30:41;;;;;;;1.40;1.30;;;16.20;56.70;17.00;99193.00;;;;5031456;28;20630;-55
2023/04/12 06:33:07;;;;;;;1.60;1.50;;;16.20;56.70;17.00;99182.00;;;;5031674;28;20181;-56
2023/04/12 06:35:33;;;;;;;2.00;1.60;;;16.20;56.80;17.00;99171.00;;;;5032228;28;20206;-55
2023/04/12 06:37:58;;;;;;;1.90;1.50;;;16.20;56.80;17.00;99178.00;;;;5032285;28;20175;-54
2023/04/12 06:40:24;;;;;;;1.57;1.47;;;16.10;56.70;17.00;99170.00;;;;5032066;28;20205;-55
2023/04/12 06:42:50;;;;;;;2.50;1.60;;;16.10;56.80;17.00;99163.00;;;;5030191;28;20175;-55
2023/04/12 06:45:16;;;;;;;1.40;1.30;;;16.20;57.00;17.00;99160.00;;;;5032886;28;20559;-55
2023/04/12 06:47:41;;;;;;;1.97;1.57;;;16.10;56.90;17.00;99156.00;;;;5032271;28;20610;-55
2023/04/12 06:50:07;;;;;;;1.50;1.40;;;16.10;56.90;17.00;99158.00;;;;5032158;28;20180;-56
2023/04/12 06:52:33;;;;;;;1.77;1.33;;;16.10;56.90;17.00;99161.00;;;;5031704;28;20240;-56
2023/04/12 06:54:59;;;;;;;1.30;1.20;;;16.10;56.90;17.00;99147.00;;;;5031599;28;20689;-56
2023/04/12 06:57:25;;;;;;;1.60;1.50;;;16.10;56.90;17.00;99140.00;;;;5032506;28;20167;-54
2023/04/12 06:59:51;;;;;;;1.57;1.40;;;16.10;57.60;17.00;99136.00;;;;5031969;28;20202;-54
2023/04/12 07:02:17;;;;;;;1.50;1.40;;;16.10;56.90;17.00;99130.00;;;;5031464;28;20210;-55
2023/04/12 07:04:42;;;;;;;1.40;1.30;;;16.10;56.90;17.00;99120.00;;;;5031572;28;20245;-55
2023/04/12 07:07:09;;;;;;;1.60;1.50;;;16.10;56.90;17.00;99110.00;;;;5031276;28;20259;-56
2023/04/12 07:09:34;;;;;;;1.60;1.50;;;16.10;56.90;16.90;99104.00;;;;5030703;28;20245;-55
2023/04/12 07:12:01;;;;;;;1.50;1.40;;;16.10;56.90;16.90;99112.00;;;;5030523;28;20183;-54
2023/04/12 07:14:27;;;;;;;1.63;1.40;;;16.10;56.90;16.90;99118.00;;;;5030529;28;20206;-55
2023/04/12 07:16:53;;;;;;;1.67;1.50;;;16.10;57.00;16.90;99106.00;;;;5030825;28;20201;-54
2023/04/12 07:19:18;;;;;;;1.50;1.40;;;16.10;56.90;16.90;99096.00;;;;5026335;28;20175;-55
2023/04/12 07:21:44;;;;;;;1.43;1.33;;;16.00;57.00;16.90;99094.00;;;;5031220;28;20544;-56
2023/04/12 07:24:10;;;;;;;2.23;1.40;;;16.00;57.00;16.90;99089.00;;;;5028503;28;20210;-58
2023/04/12 07:26:36;;;;;;;1.63;1.37;;;16.00;57.00;16.90;99085.00;;;;5029520;28;20210;-55
2023/04/12 07:29:02;;;;;;;1.00;1.00;;;16.00;57.20;16.90;99090.00;;;;5031209;28;20653;-58
2023/04/12 07:31:29;;;;;;;1.87;1.10;;;16.00;57.20;16.90;99089.00;;;;5031281;28;20266;-55
2023/04/12 07:33:55;;;;;;;1.60;1.33;;;16.00;57.20;16.90;99078.00;;;;5037706;28;20203;-55
2023/04/12 07:36:21;;;;;;;2.00;1.30;;;16.00;57.20;16.90;99074.00;;;;5039383;28;20270;-57
2023/04/12 07:38:47;;;;;;;2.27;1.50;;;16.00;57.30;16.90;99066.00;;;;5034266;28;20175;-55
2023/04/12 07:41:13;;;;;;;2.27;1.60;;;16.00;57.30;16.90;99069.00;;;;5033524;28;20223;-56
2023/04/12 07:43:39;;;;;;;3.40;1.70;;;16.00;57.30;16.90;98981.00;;;;5031580;28;20709;-55
2023/04/12 07:46:07;;;;;;;2.67;1.50;;;16.00;57.40;16.90;99063.00;;;;5030521;28;20207;-56
2023/04/12 07:48:33;;;;;;;4.73;1.53;;;16.00;57.50;16.90;99050.00;;;;5028893;28;20614;-57
2023/04/12 07:50:59;;;;;;;2.40;1.70;;;16.00;57.50;16.80;99041.00;;;;5038018;28;20194;-55
2023/04/12 07:53:28;;;;;;;3.73;1.50;;;16.00;57.50;16.80;99033.00;;;;5030492;28;20183;-55
2023/04/12 07:55:54;;;;;;;1.60;1.50;;;16.00;57.60;16.80;99023.00;;;;5029417;28;20624;-56
2023/04/12 07:58:21;;;;;;;2.73;1.73;;;16.00;57.60;16.80;99028.00;;;;5029960;28;20191;-54
2023/04/12 08:00:47;;;;;;;4.27;1.67;;;16.00;57.70;16.80;99037.00;;;;5030564;28;20207;-56
2023/04/12 08:03:14;;;;;;;1.97;1.60;;;16.00;57.70;16.80;99039.00;;;;5030107;28;20591;-55
2023/04/12 08:05:40;;;;;;;1.63;1.40;;;16.00;57.70;16.80;99044.00;;;;5029245;28;20218;-55
2023/04/12 08:08:06;;;;;;;1.60;1.50;;;16.00;57.70;16.80;99044.00;;;;5031170;28;20186;-55
2023/04/12 08:10:31;;;;;;;1.50;1.40;;;16.00;57.70;16.80;99053.00;;;;5031241;28;20184;-55
2023/04/12 08:12:57;;;;;;;2.53;1.60;;;16.00;57.90;16.80;99057.00;;;;5030418;28;20266;-56
2023/04/12 08:15:23;;;;;;;2.57;1.70;;;15.90;57.90;16.80;99060.00;;;;5029881;28;20325;-56
2023/04/12 08:17:49;;;;;;;2.33;1.60;;;16.00;58.00;16.80;99050.00;;;;5029762;28;20198;-56
2023/04/12 08:20:14;;;;;;;3.70;1.80;;;16.00;58.10;16.80;99039.00;;;;5033806;28;20649;-55
2023/04/12 08:22:44;;;;;;;4.30;1.87;;;16.00;58.50;16.80;99051.00;;;;5029186;28;20186;-56
2023/04/12 08:25:10;;;;;;;5.53;1.80;;;15.90;58.60;16.80;99049.00;;;;5037325;28;20202;-56
2023/04/12 08:27:38;;;;;;;2.47;1.70;;;15.90;58.70;16.80;99040.00;;;;5032125;28;20623;-56
2023/04/12 08:30:06;;;;;;;5.40;1.80;;;16.00;59.10;16.80;99050.00;;;;5028634;28;20193;-55
2023/04/12 08:32:31;;;;;;;5.70;2.00;;;15.90;59.20;16.80;99047.00;;;;5030450;28;20197;-56
2023/04/12 08:34:59;;;;;;;5.00;2.10;;;16.00;59.40;16.80;99037.00;;;;5029377;28;20242;-56
2023/04/12 08:37:24;;;;;;;5.07;1.87;;;16.00;59.50;16.80;99035.00;;;;5030182;28;20171;-55
2023/04/12 08:39:50;;;;;;;8.07;2.07;;;15.90;59.70;16.80;99021.00;;;;5030161;28;20269;-56
2023/04/12 08:42:16;;;;;;;6.37;2.00;;;15.90;59.70;16.80;99021.00;;;;5029904;28;20179;-55
2023/04/12 08:44:42;;;;;;;7.77;2.00;;;15.90;59.70;16.80;99018.00;;;;5029771;28;20262;-55
2023/04/12 08:47:09;;;;;;;6.60;2.03;;;15.90;60.40;16.80;99021.00;;;;5029110;28;20610;-55
2023/04/12 08:49:35;;;;;;;4.83;1.80;;;15.90;59.70;16.80;99020.00;;;;5029813;28;20187;-55
2023/04/12 08:52:06;;;;;;;3.10;1.80;;;15.90;59.70;16.80;99017.00;;;;5029664;28;20633;-56
2023/04/12 08:54:33;;;;;;;3.40;2.00;;;15.90;59.70;16.80;99018.00;;;;5029436;28;20202;-55
2023/04/12 08:57:01;;;;;;;5.80;2.00;;;15.90;59.70;16.80;99026.00;;;;5020789;28;20183;-55
2023/04/12 08:59:27;;;;;;;5.63;1.70;;;15.90;59.70;16.80;99029.00;;;;5029953;28;20524;-55
2023/04/12 09:01:56;;;;;;;3.40;1.60;;;15.90;59.70;16.80;99019.00;;;;5028877;28;20171;-56
2023/04/12 09:04:23;;;;;;;4.03;1.80;;;15.90;59.70;16.70;99022.00;;;;5029133;28;20341;-55
2023/04/12 09:06:48;;;;;;;2.57;1.50;;;15.90;59.60;16.70;99015.00;;;;5029921;28;20186;-55
2023/04/12 09:09:14;;;;;;;5.20;1.83;;;15.90;59.60;16.70;98998.00;;;;5029777;28;20174;-55
2023/04/12 09:11:40;;;;;;;3.43;1.80;;;15.90;59.50;16.70;98998.00;;;;5029644;28;20186;-56
2023/04/12 09:14:23;;;;;;;2.17;1.67;;;15.90;59.50;16.70;99012.00;;;;5028804;28;20692;-56
2023/04/12 09:16:49;;;;;;;4.80;1.87;;;15.90;59.50;16.70;99015.00;;;;5029605;28;20189;-55
2023/04/12 09:19:15;;;;;;;3.60;1.80;;;15.90;59.40;16.70;99012.00;;;;5029591;28;20262;-55
2023/04/12 09:21:54;;;;;;;4.50;1.80;;;15.90;59.60;16.70;99006.00;;;;5021874;28;20661;-56
2023/04/12 09:24:23;;;;;;;3.60;2.00;;;15.90;59.60;16.70;99006.00;;;;5028958;28;20179;-56
2023/04/12 09:27:02;;;;;;;3.43;1.87;;;15.90;59.70;16.70;98997.00;;;;5029138;28;20191;-55
2023/04/12 09:29:27;;;;;;;4.20;1.90;;;15.90;59.70;16.70;99000.00;;;;5028737;28;20181;-55
2023/04/12 09:32:11;;;;;;;4.90;1.87;;;15.90;59.70;16.70;99003.00;;;;5028960;28;20258;-55
2023/04/12 09:34:37;;;;;;;6.13;1.63;;;15.90;59.80;16.70;98999.00;;;;5028742;28;20203;-56
2023/04/12 09:37:14;;;;;;;3.93;1.87;;;15.90;59.80;16.70;99008.00;;;;5038596;28;20183;-56
2023/04/12 09:39:40;;;;;;;5.87;2.00;;;15.90;59.70;16.70;98994.00;;;;5037298;28;20253;-53
2023/04/12 09:42:10;;;;;;;5.73;1.93;;;15.90;59.70;16.70;98979.00;;;;5021979;28;20187;-55
2023/04/12 09:44:36;;;;;;;6.83;1.87;;;15.90;59.70;16.70;98992.00;;;;5028444;28;20261;-55
2023/04/12 09:47:05;;;;;;;3.63;1.70;;;15.90;60.30;16.70;98989.00;;;;5029330;28;20210;-53
2023/04/12 09:49:38;;;;;;;5.00;1.93;;;15.90;60.50;16.70;98989.00;;;;5030357;28;20175;-54
2023/04/12 09:52:06;;;;;;;3.33;1.93;;;15.90;60.10;16.80;98989.00;;;;5043221;28;20187;-54
2023/04/12 09:54:43;;;;;;;5.40;1.90;;;15.90;59.90;16.80;98995.00;;;;5032242;28;20688;-55
2023/04/12 09:57:10;;;;;;;4.90;1.83;;;16.00;60.00;16.80;98993.00;;;;5027897;28;20232;-55
2023/04/12 09:59:38;;;;;;;3.53;1.70;;;16.00;60.00;16.80;98996.00;;;;5028282;28;20262;-56
2023/04/12 10:02:26;;;;;;;2.57;1.67;;;16.00;60.00;16.80;98990.00;;;;5028942;28;20538;-55
2023/04/12 10:04:52;;;;;;;3.93;1.80;;;16.00;60.10;16.80;98985.00;;;;5026831;28;20230;-54
2023/04/12 10:07:17;;;;;;;2.00;1.30;;;16.10;60.60;16.80;98964.00;;;;5027588;28;20218;-55
2023/04/12 10:09:43;;;;;;;3.63;1.60;;;16.00;60.30;16.80;98968.00;;;;5028319;28;20653;-56
2023/04/12 10:12:10;;;;;;;2.60;1.50;;;16.00;60.10;16.80;98973.00;;;;5012313;28;20233;-56
2023/04/12 10:14:35;;;;;;;4.23;1.70;;;16.00;60.20;16.80;98968.00;;;;5028050;28;20307;-55
2023/04/12 10:17:02;;;;;;;3.83;1.50;;;16.00;60.00;16.80;98969.00;;;;5019555;28;20666;-56
2023/04/12 10:19:29;;;;;;;2.60;1.40;;;16.00;60.10;16.90;98966.00;;;;5028240;28;20199;-56
2023/04/12 10:21:58;;;;;;;2.93;1.53;;;16.00;60.10;16.90;98952.00;;;;5027892;28;20650;-58
2023/04/12 10:24:26;;;;;;;3.17;1.63;;;16.00;60.10;16.90;98946.00;;;;5007836;28;20480;-56
2023/04/12 10:26:54;;;;;;;2.80;1.50;;;16.00;60.10;16.90;98957.00;;;;5024585;28;20198;-57
2023/04/12 10:29:33;;;;;;;5.90;1.50;;;16.00;60.10;16.90;98959.00;;;;5027528;28;20186;-57
2023/04/12 10:32:22;;;;;;;3.00;1.63;;;16.00;60.00;16.90;98949.00;;;;5028820;28;20684;-56
2023/04/12 10:35:00;;;;;;;4.67;1.50;;;16.00;60.00;16.90;98945.00;;;;5025894;28;20210;-57
2023/04/12 10:38:01;;;;;;;2.20;1.10;;;16.00;59.90;16.90;98937.00;;;;5028953;28;20179;-56
2023/04/12 10:40:31;;;;;;;3.60;1.53;;;16.00;59.80;16.90;98943.00;;;;5028614;28;20564;-57
2023/04/12 10:43:21;;;;;;;2.93;1.63;;;16.00;59.80;16.90;98949.00;;;;5028661;28;20183;-56
2023/04/12 10:45:48;;;;;;;3.63;1.30;;;16.00;60.00;16.90;98942.00;;;;5028420;28;20206;-55
2023/04/12 10:48:32;;;;;;;3.07;1.40;;;16.00;59.90;16.90;98959.00;;;;5028391;28;20226;-56
2023/04/12 10:51:20;;;;;;;3.10;1.50;;;16.00;60.10;16.60;98939.00;;;;5028472;28;20661;-56
2023/04/12 10:53:45;;;;;;;1.53;1.33;;;16.10;60.10;16.80;98952.00;;;;5029252;28;20230;-56
2023/04/12 10:56:41;;;;;;;1.77;1.33;;;16.00;60.40;16.80;98950.00;;;;5032057;28;20259;-56
2023/04/12 10:59:11;;;;;;;1.63;1.40;;;16.00;60.20;16.80;98955.00;;;;5025566;28;20230;-57
2023/04/12 11:01:37;;;;;;;3.47;1.50;;;16.00;60.60;16.80;98957.00;;;;5031873;28;20185;-58